createdAt,value
2022-11-13T00:02:11.653Z,11.48
2022-11-13T00:04:57.799Z,11.85
2022-11-13T00:07:43.913Z,12.43
2022-11-13T00:10:29.896Z,11.88
2022-11-13T00:13:16.180Z,11.13
2022-11-13T00:16:08.112Z,12.57
2022-11-13T00:18:53.945Z,12.80
2022-11-13T00:21:40.249Z,11.88
2022-11-13T00:24:26.288Z,11.80
2022-11-13T00:27:12.941Z,13.20
2022-11-13T00:29:58.974Z,12.43
2022-11-13T00:32:44.902Z,11.40
2022-11-13T00:35:32.952Z,12.15
2022-11-13T00:38:18.770Z,12.23
2022-11-13T00:41:05.187Z,13.15
2022-11-13T00:43:52.172Z,13.40
2022-11-13T00:46:38.558Z,13.65
2022-11-13T00:49:25.152Z,14.75
2022-11-13T00:52:11.008Z,12.60
2022-11-13T00:54:57.055Z,14.13
2022-11-13T00:57:42.798Z,12.65
2022-11-13T01:00:29.440Z,12.45
2022-11-13T01:03:17.086Z,12.15
2022-11-13T01:06:10.919Z,12.70
2022-11-13T01:08:59.803Z,13.27
2022-11-13T01:11:45.944Z,13.75
2022-11-13T01:14:31.746Z,13.70
2022-11-13T01:17:17.961Z,13.95
2022-11-13T01:20:07.906Z,12.88
2022-11-13T01:22:54.319Z,12.82
2022-11-13T01:25:41.844Z,14.13
2022-11-13T01:28:28.159Z,13.77
2022-11-13T01:31:18.819Z,12.88
2022-11-13T01:34:05.762Z,12.45
2022-11-13T01:36:51.654Z,13.10
2022-11-13T01:39:38.055Z,13.80
2022-11-13T01:42:23.739Z,14.82
2022-11-13T01:45:47.179Z,13.52
2022-11-13T01:48:39.281Z,13.90
2022-11-13T01:51:48.181Z,15.75
2022-11-13T01:54:37.511Z,14.65
2022-11-13T01:57:24.730Z,15.55
2022-11-13T02:00:11.770Z,15.25
2022-11-13T02:02:58.224Z,15.32
2022-11-13T02:05:44.139Z,16.52
2022-11-13T02:08:30.749Z,15.63
2022-11-13T02:11:17.919Z,16.40
2022-11-13T02:14:05.591Z,16.92
2022-11-13T02:17:00.282Z,15.60
2022-11-13T02:19:51.497Z,13.98
2022-11-13T02:22:47.020Z,14.93
2022-11-13T02:25:33.545Z,15.98
2022-11-13T02:28:19.197Z,15.45
2022-11-13T02:31:10.250Z,14.10
2022-11-13T02:33:55.962Z,14.20
2022-11-13T02:36:42.606Z,13.48
2022-11-13T02:39:28.529Z,13.63
2022-11-13T02:42:15.234Z,13.40
2022-11-13T02:45:01.393Z,12.15
2022-11-13T02:47:47.947Z,13.38
2022-11-13T02:50:35.781Z,12.52
2022-11-13T02:53:21.836Z,13.18
2022-11-13T02:56:07.712Z,14.00
2022-11-13T02:58:53.708Z,13.43
2022-11-13T03:01:39.614Z,14.35
2022-11-13T03:04:28.965Z,14.10
2022-11-13T03:07:24.257Z,13.60
2022-11-13T03:10:11.268Z,12.93
2022-11-13T03:12:58.967Z,13.77
2022-11-13T03:15:45.176Z,12.98
2022-11-13T03:18:30.720Z,13.05
2022-11-13T03:21:16.861Z,12.10
2022-11-13T03:24:02.710Z,12.90
2022-11-13T03:26:48.557Z,12.30
2022-11-13T03:29:34.351Z,12.55
2022-11-13T03:32:20.468Z,11.73
2022-11-13T03:35:06.589Z,12.02
2022-11-13T03:37:52.523Z,11.70
2022-11-13T03:40:38.503Z,13.27
2022-11-13T03:43:25.018Z,12.15
2022-11-13T03:46:10.763Z,11.93
2022-11-13T03:48:57.317Z,11.85
2022-11-13T03:51:43.057Z,14.38
2022-11-13T03:54:29.122Z,14.63
2022-11-13T03:57:15.585Z,14.23
2022-11-13T04:00:01.884Z,13.45
2022-11-13T04:02:50.052Z,13.85
2022-11-13T04:05:36.731Z,12.63
2022-11-13T04:08:22.437Z,12.50
2022-11-13T04:11:10.717Z,11.57
2022-11-13T04:13:56.136Z,11.90
2022-11-13T04:16:41.990Z,13.18
2022-11-13T04:19:27.914Z,13.43
2022-11-13T04:22:13.787Z,12.55
2022-11-13T04:24:59.582Z,12.30
2022-11-13T04:27:45.619Z,14.23
2022-11-13T04:30:31.476Z,12.68
2022-11-13T04:33:18.009Z,12.20
2022-11-13T04:36:04.104Z,13.18
2022-11-13T04:38:50.223Z,13.77
2022-11-13T04:41:55.656Z,18.48
2022-11-13T04:44:42.009Z,12.60
2022-11-13T04:47:27.804Z,13.18
2022-11-13T04:50:14.847Z,14.65
2022-11-13T04:53:00.556Z,14.52
2022-11-13T04:55:46.524Z,14.40
2022-11-13T04:58:32.507Z,12.73
2022-11-13T05:01:19.043Z,13.40
2022-11-13T05:04:04.939Z,13.15
2022-11-13T05:06:51.362Z,12.98
2022-11-13T05:09:37.322Z,13.85
2022-11-13T05:12:23.063Z,13.45
2022-11-13T05:15:08.844Z,13.88
2022-11-13T05:17:54.626Z,14.25
2022-11-13T05:20:40.618Z,13.40
2022-11-13T05:23:27.076Z,14.57
2022-11-13T05:26:14.005Z,14.77
2022-11-13T05:29:01.017Z,16.75
2022-11-13T05:31:46.981Z,16.25
2022-11-13T05:34:33.228Z,15.48
2022-11-13T05:37:19.031Z,14.20
2022-11-13T05:40:09.744Z,14.88
2022-11-13T05:42:56.528Z,13.45
2022-11-13T05:45:42.428Z,13.65
2022-11-13T05:48:29.250Z,13.52
2022-11-13T05:51:18.579Z,12.75
2022-11-13T05:54:04.610Z,13.70
2022-11-13T05:56:50.739Z,14.02
2022-11-13T05:59:36.487Z,15.75
2022-11-13T06:02:22.620Z,14.27
2022-11-13T06:05:08.571Z,14.23
2022-11-13T06:07:54.322Z,14.88
2022-11-13T06:10:39.764Z,15.43
2022-11-13T06:13:26.035Z,15.77
2022-11-13T06:16:14.706Z,26.48
2022-11-13T06:19:03.760Z,32.15
2022-11-13T06:21:49.895Z,17.27
2022-11-13T06:24:36.173Z,25.00
2022-11-13T06:27:21.873Z,16.75
2022-11-13T06:30:09.904Z,15.75
2022-11-13T06:32:55.732Z,14.88
2022-11-13T06:35:42.072Z,15.32
2022-11-13T06:38:33.848Z,15.93
2022-11-13T06:41:23.376Z,16.02
2022-11-13T06:44:09.712Z,15.38
2022-11-13T06:46:55.796Z,14.85
2022-11-13T06:49:41.555Z,15.05
2022-11-13T06:52:28.141Z,17.20
2022-11-13T06:55:13.886Z,17.83
2022-11-13T06:58:00.279Z,15.68
2022-11-13T07:00:46.600Z,14.35
2022-11-13T07:03:33.265Z,15.73
2022-11-13T07:06:21.689Z,15.02
2022-11-13T07:09:08.701Z,16.40
2022-11-13T07:11:54.773Z,19.33
2022-11-13T07:14:40.754Z,19.23
2022-11-13T07:17:28.617Z,16.10
2022-11-13T07:20:14.962Z,16.13
2022-11-13T07:23:02.741Z,16.05
2022-11-13T07:25:49.208Z,15.07
2022-11-13T07:28:34.846Z,17.40
2022-11-13T07:31:22.037Z,16.50
2022-11-13T07:34:07.986Z,15.88
2022-11-13T07:36:53.908Z,15.75
2022-11-13T07:39:39.943Z,16.70
2022-11-13T07:42:25.921Z,14.88
2022-11-13T07:45:11.714Z,18.30
2022-11-13T07:48:05.043Z,15.13
2022-11-13T07:50:51.397Z,15.32
2022-11-13T07:53:40.113Z,15.98
2022-11-13T07:56:26.154Z,17.70
2022-11-13T07:59:12.329Z,16.20
2022-11-13T08:01:58.243Z,18.10
2022-11-13T08:04:44.484Z,15.77
2022-11-13T08:07:30.193Z,13.95
2022-11-13T08:10:17.963Z,17.20
2022-11-13T08:13:07.634Z,18.15
2022-11-13T08:15:54.182Z,14.13
2022-11-13T08:18:41.797Z,18.45
2022-11-13T08:21:28.416Z,14.75
2022-11-13T08:24:14.573Z,15.82
2022-11-13T08:27:00.983Z,18.90
2022-11-13T08:29:46.617Z,19.75
2022-11-13T08:32:32.699Z,16.17
2022-11-13T08:35:21.294Z,19.67
2022-11-13T08:38:10.532Z,16.77
2022-11-13T08:40:58.685Z,16.42
2022-11-13T08:43:45.869Z,17.13
2022-11-13T08:46:31.717Z,17.25
2022-11-13T08:49:17.921Z,16.95
2022-11-13T08:52:03.821Z,14.55
2022-11-13T08:54:49.992Z,15.93
2022-11-13T08:57:36.258Z,16.45
2022-11-13T09:00:22.494Z,16.80
2022-11-13T09:03:11.044Z,18.85
2022-11-13T09:05:57.046Z,18.63
2022-11-13T09:08:42.837Z,16.65
2022-11-13T09:11:29.245Z,16.35
2022-11-13T09:14:14.992Z,16.80
2022-11-13T09:17:01.144Z,20.40
2022-11-13T09:19:46.822Z,15.77
2022-11-13T09:22:34.996Z,14.85
2022-11-13T09:25:20.545Z,17.88
2022-11-13T09:28:07.374Z,14.82
2022-11-13T09:30:53.109Z,13.65
2022-11-13T09:33:39.970Z,12.80
2022-11-13T09:36:25.424Z,12.30
2022-11-13T09:39:11.480Z,13.65
2022-11-13T09:42:05.703Z,13.93
2022-11-13T09:44:58.232Z,13.02
2022-11-13T09:47:46.364Z,14.20
2022-11-13T09:50:33.527Z,15.00
2022-11-13T09:53:19.982Z,16.27
2022-11-13T09:56:36.281Z,14.50
2022-11-13T09:59:44.192Z,16.45
2022-11-13T10:02:47.611Z,16.63
2022-11-13T10:05:36.245Z,14.68
2022-11-13T10:08:29.979Z,15.75
2022-11-13T10:11:28.189Z,13.77
2022-11-13T10:14:19.535Z,12.85
2022-11-13T10:17:56.642Z,13.32
2022-11-13T10:20:55.895Z,12.52
2022-11-13T10:23:44.705Z,12.60
2022-11-13T10:26:30.878Z,13.30
2022-11-13T10:29:21.069Z,13.90
2022-11-13T10:32:23.117Z,11.90
2022-11-13T10:35:21.182Z,12.55
2022-11-13T10:38:35.480Z,13.02
2022-11-13T10:41:22.330Z,13.57
2022-11-13T10:44:18.817Z,13.73
2022-11-13T10:47:42.456Z,11.32
2022-11-13T10:50:30.560Z,12.18
2022-11-13T10:53:20.427Z,12.48
2022-11-13T10:56:35.745Z,11.32
2022-11-13T10:59:21.997Z,12.73
2022-11-13T11:02:28.985Z,11.35
2022-11-13T11:05:23.989Z,12.00
2022-11-13T11:08:11.158Z,15.50
2022-11-13T11:11:32.303Z,11.30
2022-11-13T11:14:23.852Z,12.02
2022-11-13T11:17:14.311Z,11.18
2022-11-13T11:20:10.618Z,11.80
2022-11-13T11:23:25.013Z,11.65
2022-11-13T11:26:49.598Z,11.68
2022-11-13T11:29:42.825Z,13.10
2022-11-13T11:32:31.331Z,11.13
2022-11-13T11:35:43.885Z,11.40
2022-11-13T11:38:37.361Z,13.05
2022-11-13T11:41:31.971Z,12.52
2022-11-13T11:44:36.766Z,12.13
2022-11-13T11:47:22.729Z,12.60
2022-11-13T11:50:17.880Z,12.68
2022-11-13T11:53:21.544Z,12.10
2022-11-13T11:56:29.444Z,12.70
2022-11-13T11:59:55.576Z,11.95
2022-11-13T12:06:14.849Z,12.63
2022-11-13T12:09:33.147Z,11.80
2022-11-13T12:12:26.491Z,11.50
2022-11-13T12:15:32.932Z,13.07
2022-11-13T12:18:36.501Z,12.30
2022-11-13T12:21:24.526Z,11.75
2022-11-13T12:24:29.168Z,12.48
2022-11-13T12:27:25.884Z,12.07
2022-11-13T12:30:19.367Z,12.77
2022-11-13T12:33:49.322Z,11.23
2022-11-13T12:36:36.577Z,11.82
2022-11-13T12:40:05.864Z,12.20
2022-11-13T12:43:01.208Z,11.93
2022-11-13T12:45:53.405Z,12.15
2022-11-13T12:48:42.332Z,11.80
2022-11-13T12:51:40.169Z,12.52
2022-11-13T12:54:34.995Z,11.35
2022-11-13T12:57:27.249Z,11.93
2022-11-13T13:00:30.562Z,12.90
2022-11-13T13:03:22.032Z,11.43
2022-11-13T13:06:24.489Z,12.43
2022-11-13T13:09:33.397Z,14.43
2022-11-13T13:12:39.288Z,11.65
2022-11-13T13:15:38.760Z,11.82
2022-11-13T13:18:29.802Z,11.13
2022-11-13T13:21:18.819Z,11.27
2022-11-13T13:24:27.464Z,11.68
2022-11-13T13:27:28.632Z,13.38
2022-11-13T13:30:23.087Z,11.90
2022-11-13T13:36:52.035Z,10.60
2022-11-13T13:40:10.029Z,10.40
2022-11-13T13:43:20.747Z,13.50
2022-11-13T13:46:29.692Z,14.38
2022-11-13T13:49:20.635Z,12.50
2022-11-13T13:52:06.993Z,13.40
2022-11-13T13:54:53.418Z,18.27
2022-11-13T13:57:42.389Z,13.60
2022-11-13T14:00:29.069Z,17.90
2022-11-13T14:03:21.464Z,15.10
2022-11-13T14:06:22.187Z,14.65
2022-11-13T14:09:17.880Z,16.10
2022-11-13T14:12:17.183Z,14.88
2022-11-13T14:15:05.568Z,21.40
2022-11-13T14:17:51.908Z,19.10
2022-11-13T14:20:46.967Z,18.15
2022-11-13T14:26:24.134Z,23.02
2022-11-13T14:29:22.192Z,19.73
2022-11-13T14:32:16.211Z,16.42
2022-11-13T14:35:05.254Z,19.15
2022-11-13T14:37:53.816Z,17.92
2022-11-13T14:40:39.833Z,19.23
2022-11-13T14:43:30.475Z,18.92
2022-11-13T14:46:36.014Z,23.38
2022-11-13T14:52:27.067Z,16.27
2022-11-13T14:55:32.217Z,16.85
2022-11-13T14:58:38.736Z,20.67
2022-11-13T15:01:25.644Z,33.30
2022-11-13T15:04:13.865Z,26.88
2022-11-13T15:07:02.255Z,19.77
2022-11-13T15:09:49.937Z,21.83
2022-11-13T15:12:36.038Z,19.73
2022-11-13T15:15:25.573Z,26.08
2022-11-13T15:18:19.586Z,22.10
2022-11-13T15:21:06.499Z,19.85
2022-11-13T15:23:52.603Z,45.78
2022-11-13T15:26:39.074Z,57.70
2022-11-13T15:29:25.675Z,32.60
2022-11-13T15:32:13.330Z,25.65
2022-11-13T15:34:59.437Z,22.73
2022-11-13T15:37:45.503Z,20.30
2022-11-13T15:40:32.085Z,18.80
2022-11-13T15:43:22.543Z,41.15
2022-11-13T15:46:20.271Z,20.80
2022-11-13T15:49:07.183Z,22.10
2022-11-13T15:51:53.692Z,23.75
2022-11-13T15:54:40.087Z,165.48
2022-11-13T15:57:28.414Z,66.78
2022-11-13T16:00:27.046Z,58.47
2022-11-13T16:03:14.129Z,90.45
2022-11-13T16:06:00.401Z,43.67
2022-11-13T16:08:46.879Z,25.95
2022-11-13T16:11:34.403Z,18.50
2022-11-13T16:14:24.613Z,18.50
2022-11-13T16:17:13.969Z,16.77
2022-11-13T16:20:00.329Z,25.95
2022-11-13T16:22:46.727Z,25.65
2022-11-13T16:25:32.502Z,22.33
2022-11-13T16:28:19.369Z,29.63
2022-11-13T16:31:05.715Z,20.10
2022-11-13T16:33:51.529Z,21.25
2022-11-13T16:36:37.721Z,16.63
2022-11-13T16:39:23.392Z,16.60
2022-11-13T16:42:10.240Z,15.75
2022-11-13T16:44:57.089Z,17.55
2022-11-13T16:47:44.179Z,17.92
2022-11-13T16:50:32.082Z,17.38
2022-11-13T16:53:18.184Z,17.25
2022-11-13T16:56:13.064Z,16.63
2022-11-13T16:58:59.601Z,63.78
2022-11-13T17:01:45.935Z,39.35
2022-11-13T17:04:33.576Z,46.90
2022-11-13T17:07:19.820Z,32.10
2022-11-13T17:10:36.624Z,40.50
2022-11-13T17:13:12.866Z,34.50
2022-11-13T17:16:02.163Z,62.38
2022-11-13T17:18:49.684Z,29.05
2022-11-13T17:21:38.945Z,30.30
2022-11-13T17:24:28.952Z,29.30
2022-11-13T17:27:14.981Z,24.27
2022-11-13T17:30:01.092Z,25.20
2022-11-13T17:32:47.315Z,30.48
2022-11-13T17:35:33.119Z,24.17
2022-11-13T17:38:19.089Z,33.40
2022-11-13T17:41:13.158Z,23.45
2022-11-13T17:44:01.259Z,21.92
2022-11-13T17:46:48.237Z,27.88
2022-11-13T17:49:34.257Z,31.73
2022-11-13T17:52:20.454Z,22.08
2022-11-13T17:55:07.727Z,23.95
2022-11-13T17:57:53.497Z,27.17
2022-11-13T18:00:39.522Z,27.70
2022-11-13T18:03:25.236Z,23.42
2022-11-13T18:06:16.907Z,22.85
2022-11-13T18:09:05.687Z,23.42
2022-11-13T18:11:52.117Z,26.23
2022-11-13T18:14:37.831Z,25.65
2022-11-13T18:17:24.549Z,24.25
2022-11-13T18:20:11.381Z,23.05
2022-11-13T18:22:57.995Z,21.38
2022-11-13T18:25:43.706Z,30.40
2022-11-13T18:28:30.398Z,26.13
2022-11-13T18:31:18.193Z,35.83
2022-11-13T18:34:06.323Z,32.88
2022-11-13T18:36:52.831Z,37.00
2022-11-13T18:39:38.849Z,41.08
2022-11-13T18:42:24.933Z,59.70
2022-11-13T18:45:11.940Z,36.63
2022-11-13T18:47:57.790Z,43.60
2022-11-13T18:50:55.125Z,38.67
2022-11-13T18:53:41.863Z,47.17
2022-11-13T18:56:31.991Z,40.92
2022-11-13T18:59:18.132Z,48.20
2022-11-13T19:02:04.889Z,53.17
2022-11-13T19:04:50.973Z,54.72
2022-11-13T19:07:37.045Z,51.55
2022-11-13T19:10:22.624Z,54.30
2022-11-13T19:13:09.385Z,50.63
2022-11-13T19:15:55.821Z,74.78
2022-11-13T19:18:43.893Z,65.45
2022-11-13T19:21:31.861Z,60.83
2022-11-13T19:24:18.413Z,51.15
2022-11-13T19:27:04.918Z,60.83
2022-11-13T19:29:51.165Z,51.75
2022-11-13T19:32:37.122Z,47.92
2022-11-13T19:35:25.498Z,48.83
2022-11-13T19:38:12.427Z,53.25
2022-11-13T19:40:58.960Z,46.33
2022-11-13T19:43:46.036Z,48.47
2022-11-13T19:46:34.123Z,43.03
2022-11-13T19:49:20.365Z,40.78
2022-11-13T19:52:07.135Z,40.85
2022-11-13T19:54:52.579Z,38.17
2022-11-13T19:57:44.903Z,42.28
2022-11-13T20:00:32.466Z,39.17
2022-11-13T20:03:20.025Z,37.38
2022-11-13T20:06:06.660Z,29.08
2022-11-13T20:08:54.398Z,31.88
2022-11-13T20:11:40.030Z,27.15
2022-11-13T20:14:26.357Z,27.20
2022-11-13T20:17:12.613Z,27.13
2022-11-13T20:19:59.001Z,30.13
2022-11-13T20:22:44.941Z,33.65
2022-11-13T20:25:31.039Z,30.05
2022-11-13T20:28:17.234Z,30.20
2022-11-13T20:31:12.258Z,30.17
2022-11-13T20:33:58.208Z,28.45
2022-11-13T20:36:44.824Z,28.98
2022-11-13T20:39:30.699Z,27.58
2022-11-13T20:42:16.820Z,30.15
2022-11-13T20:45:02.463Z,29.45
2022-11-13T20:47:48.738Z,29.02
2022-11-13T20:50:36.386Z,26.77
2022-11-13T20:53:22.599Z,33.50
2022-11-13T20:56:09.413Z,26.85
2022-11-13T20:58:55.753Z,27.15
2022-11-13T21:01:41.635Z,29.83
2022-11-13T21:04:28.141Z,26.70
2022-11-13T21:07:14.279Z,25.40
2022-11-13T21:10:02.250Z,26.17
2022-11-13T21:12:47.940Z,26.73
2022-11-13T21:15:37.971Z,28.20
2022-11-13T21:18:27.137Z,26.17
2022-11-13T21:21:18.929Z,39.55
2022-11-13T21:24:05.119Z,35.13
2022-11-13T21:26:51.658Z,32.60
2022-11-13T21:29:37.276Z,27.33
2022-11-13T21:32:23.729Z,27.65
2022-11-13T21:35:09.482Z,24.45
2022-11-13T21:37:55.760Z,24.67
2022-11-13T21:40:41.644Z,22.50
2022-11-13T21:43:27.977Z,23.08
2022-11-13T21:46:14.543Z,25.10
2022-11-13T21:49:03.431Z,23.75
2022-11-13T21:51:49.271Z,26.80
2022-11-13T21:54:35.311Z,23.33
2022-11-13T21:57:22.877Z,23.75
2022-11-13T22:00:10.109Z,23.38
2022-11-13T22:02:56.373Z,23.38
2022-11-13T22:05:42.952Z,24.13
2022-11-13T22:08:28.914Z,24.95
2022-11-13T22:11:15.208Z,28.80
2022-11-13T22:14:01.904Z,24.70
2022-11-13T22:16:47.918Z,26.95
2022-11-13T22:19:36.485Z,25.30
2022-11-13T22:22:22.966Z,26.38
2022-11-13T22:25:09.184Z,27.80
2022-11-13T22:27:55.217Z,26.25
2022-11-13T22:30:40.756Z,26.40
2022-11-13T22:33:30.313Z,26.35
2022-11-13T22:36:21.464Z,26.85
2022-11-13T22:39:07.817Z,26.27
2022-11-13T22:41:53.854Z,25.45
2022-11-13T22:44:54.771Z,25.08
2022-11-13T22:47:41.919Z,25.80
2022-11-13T22:50:28.104Z,26.05
2022-11-13T22:53:14.826Z,27.80
2022-11-13T22:56:22.126Z,27.05
2022-11-13T22:59:12.028Z,27.75
2022-11-13T23:01:57.930Z,30.27
2022-11-13T23:04:43.679Z,31.25
2022-11-13T23:07:30.675Z,29.27
2022-11-13T23:10:16.736Z,27.35
2022-11-13T23:13:02.526Z,29.08
2022-11-13T23:15:48.291Z,26.95
2022-11-13T23:18:34.956Z,27.63
2022-11-13T23:21:21.768Z,27.17
2022-11-13T23:24:10.429Z,26.88
2022-11-13T23:26:56.408Z,24.45
2022-11-13T23:29:47.224Z,26.00
2022-11-13T23:32:35.400Z,25.73
2022-11-13T23:35:21.436Z,27.00
2022-11-13T23:38:07.240Z,27.88
2022-11-13T23:40:55.188Z,28.52
2022-11-13T23:46:47.761Z,26.35
2022-11-13T23:49:33.745Z,26.25
2022-11-13T23:52:19.682Z,27.15
2022-11-13T23:55:05.896Z,28.55
2022-11-13T23:58:03.634Z,28.40
